createdAt,value
2023-03-01T00:02:08.520Z,102489.38
2023-03-01T00:04:38.484Z,102488.50
2023-03-01T00:07:06.872Z,102484.19
2023-03-01T00:09:35.239Z,102484.19
2023-03-01T00:12:05.277Z,102479.00
2023-03-01T00:14:34.765Z,102476.16
2023-03-01T00:17:03.473Z,102477.94
2023-03-01T00:19:33.702Z,102481.50
2023-03-01T00:22:02.663Z,102476.00
2023-03-01T00:24:30.717Z,102472.44
2023-03-01T00:26:59.645Z,102476.16
2023-03-01T00:29:30.281Z,102468.13
2023-03-01T00:31:58.846Z,102468.28
2023-03-01T00:34:28.512Z,102465.53
2023-03-01T00:36:56.753Z,102472.69
2023-03-01T00:39:25.615Z,102468.13
2023-03-01T00:41:54.136Z,102467.09
2023-03-01T00:44:23.072Z,102464.50
2023-03-01T00:46:52.931Z,102466.56
2023-03-01T00:49:21.927Z,102468.28
2023-03-01T00:51:50.552Z,102455.94
2023-03-01T00:54:19.338Z,102462.28
2023-03-01T00:56:50.183Z,102463.06
2023-03-01T00:59:19.202Z,102457.72
2023-03-01T01:01:47.406Z,102448.66
2023-03-01T01:04:18.201Z,102447.97
2023-03-01T01:06:47.751Z,102454.09
2023-03-01T01:09:19.083Z,102445.13
2023-03-01T01:11:48.227Z,102443.25
2023-03-01T01:14:23.619Z,102439.47
2023-03-01T01:16:52.210Z,102442.31
2023-03-01T01:19:22.216Z,102434.13
2023-03-01T01:21:50.703Z,102432.44
2023-03-01T01:24:21.125Z,102432.25
2023-03-01T01:26:49.247Z,102434.13
2023-03-01T01:29:17.691Z,102434.03
2023-03-01T01:31:45.854Z,102422.56
2023-03-01T01:34:16.052Z,102420.13
2023-03-01T01:36:46.462Z,102421.28
2023-03-01T01:39:14.587Z,102415.88
2023-03-01T01:41:43.871Z,102420.25
2023-03-01T01:44:13.820Z,102418.53
2023-03-01T01:46:43.041Z,102411.19
2023-03-01T01:49:16.504Z,102421.06
2023-03-01T01:51:49.247Z,102401.59
2023-03-01T01:54:21.122Z,102399.00
2023-03-01T01:56:57.443Z,102411.28
2023-03-01T01:59:26.981Z,102395.38
2023-03-01T02:01:56.852Z,102392.78
2023-03-01T02:04:25.165Z,102385.31
2023-03-01T02:06:57.909Z,102381.84
2023-03-01T02:09:26.111Z,102381.84
2023-03-01T02:11:54.461Z,102387.19
2023-03-01T02:14:22.908Z,102371.78
2023-03-01T02:16:52.445Z,102375.22
2023-03-01T02:19:25.081Z,102374.38
2023-03-01T02:21:58.546Z,102375.06
2023-03-01T02:24:33.152Z,102366.19
2023-03-01T02:27:04.366Z,102361.69
2023-03-01T02:29:34.512Z,102355.31
2023-03-01T02:32:04.861Z,102357.13
2023-03-01T02:34:34.312Z,102355.31
2023-03-01T02:37:05.626Z,102352.81
2023-03-01T02:39:36.741Z,102349.41
2023-03-01T02:42:05.603Z,102346.72
2023-03-01T02:44:35.500Z,102337.06
2023-03-01T02:47:05.356Z,102346.03
2023-03-01T02:49:35.629Z,102335.50
2023-03-01T02:52:10.229Z,102338.09
2023-03-01T02:54:42.445Z,102331.09
2023-03-01T02:57:11.486Z,102325.66
2023-03-01T02:59:41.751Z,102329.19
2023-03-01T03:02:21.360Z,102321.88
2023-03-01T03:04:50.109Z,102329.13
2023-03-01T03:07:18.910Z,102330.66
2023-03-01T03:09:47.054Z,102320.75
2023-03-01T03:12:15.278Z,102312.56
2023-03-01T03:14:44.872Z,102313.41
2023-03-01T03:17:13.291Z,102301.78
2023-03-01T03:19:41.675Z,102301.88
2023-03-01T03:22:10.458Z,102295.75
2023-03-01T03:24:39.333Z,102293.75
2023-03-01T03:27:08.133Z,102302.50
2023-03-01T03:29:36.293Z,102293.75
2023-03-01T03:32:06.374Z,102285.81
2023-03-01T03:34:34.602Z,102289.09
2023-03-01T03:37:02.762Z,102290.81
2023-03-01T03:39:35.965Z,102291.69
2023-03-01T03:42:04.172Z,102292.38
2023-03-01T03:44:32.530Z,102295.84
2023-03-01T03:47:01.200Z,102293.00
2023-03-01T03:49:30.818Z,102290.16
2023-03-01T03:51:58.968Z,102282.97
2023-03-01T03:54:27.041Z,102287.31
2023-03-01T03:56:55.315Z,102285.44
2023-03-01T03:59:23.524Z,102293.38
2023-03-01T04:01:51.681Z,102290.63
2023-03-01T04:04:20.089Z,102284.47
2023-03-01T04:06:50.087Z,102296.91
2023-03-01T04:09:18.321Z,102283.53
2023-03-01T04:11:46.394Z,102273.75
2023-03-01T04:14:14.565Z,102277.22
2023-03-01T04:16:42.710Z,102281.88
2023-03-01T04:19:10.763Z,102275.31
2023-03-01T04:21:39.234Z,102280.66
2023-03-01T04:24:10.690Z,102289.50
2023-03-01T04:26:39.171Z,102277.91
2023-03-01T04:29:07.331Z,102274.19
2023-03-01T04:31:35.492Z,102280.34
2023-03-01T04:34:03.696Z,102277.72
2023-03-01T04:36:32.376Z,102276.72
2023-03-01T04:39:00.860Z,102281.13
2023-03-01T04:41:30.401Z,102271.53
2023-03-01T04:44:01.265Z,102274.91
2023-03-01T04:46:29.899Z,102277.59
2023-03-01T04:48:58.169Z,102269.66
2023-03-01T04:51:26.328Z,102267.19
2023-03-01T04:53:54.378Z,102273.44
2023-03-01T04:56:24.080Z,102268.22
2023-03-01T04:58:55.244Z,102276.25
2023-03-01T05:01:23.484Z,102282.25
2023-03-01T05:03:52.657Z,102277.91
2023-03-01T05:06:22.348Z,102283.19
2023-03-01T05:08:50.531Z,102278.78
2023-03-01T05:11:18.598Z,102287.59
2023-03-01T05:13:46.891Z,102281.22
2023-03-01T05:16:18.095Z,102273.25
2023-03-01T05:18:47.347Z,102277.41
2023-03-01T05:21:17.394Z,102283.44
2023-03-01T05:23:46.221Z,102284.44
2023-03-01T05:26:27.784Z,102274.47
2023-03-01T05:29:00.273Z,102274.47
2023-03-01T05:31:31.976Z,102271.88
2023-03-01T05:34:00.287Z,102268.34
2023-03-01T05:36:28.934Z,102277.34
2023-03-01T05:38:57.180Z,102267.56
2023-03-01T05:41:25.284Z,102280.00
2023-03-01T05:43:53.483Z,102276.53
2023-03-01T05:46:21.615Z,102274.03
2023-03-01T05:48:51.448Z,102280.19
2023-03-01T05:51:20.070Z,102267.91
2023-03-01T05:53:48.207Z,102264.44
2023-03-01T05:56:16.272Z,102271.44
2023-03-01T05:58:44.377Z,102278.44
2023-03-01T06:01:13.790Z,102278.28
2023-03-01T06:03:41.908Z,102277.25
2023-03-01T06:06:11.527Z,102272.91
2023-03-01T06:08:39.538Z,102277.69
2023-03-01T06:11:08.225Z,102279.22
2023-03-01T06:13:36.458Z,102289.06
2023-03-01T06:16:06.417Z,102290.91
2023-03-01T06:18:34.784Z,102282.94
2023-03-01T06:21:03.080Z,102283.97
2023-03-01T06:23:32.766Z,102283.19
2023-03-01T06:26:01.019Z,102292.31
2023-03-01T06:28:29.443Z,102279.81
2023-03-01T06:30:57.943Z,102289.41
2023-03-01T06:33:26.252Z,102284.16
2023-03-01T06:35:56.374Z,102296.56
2023-03-01T06:38:25.151Z,102292.94
2023-03-01T06:40:58.411Z,102292.31
2023-03-01T06:43:26.955Z,102290.44
2023-03-01T06:45:55.355Z,102286.97
2023-03-01T06:48:23.777Z,102286.81
2023-03-01T06:50:51.897Z,102284.28
2023-03-01T06:53:20.068Z,102287.06
2023-03-01T06:55:48.148Z,102278.09
2023-03-01T06:58:17.903Z,102275.31
2023-03-01T07:00:46.324Z,102280.66
2023-03-01T07:03:14.638Z,102283.44
2023-03-01T07:05:42.751Z,102283.25
2023-03-01T07:08:10.776Z,102273.25
2023-03-01T07:10:39.368Z,102276.78
2023-03-01T07:13:08.430Z,102268.84
2023-03-01T07:15:37.949Z,102266.97
2023-03-01T07:18:06.138Z,102275.69
2023-03-01T07:20:34.138Z,102272.91
2023-03-01T07:23:02.301Z,102272.81
2023-03-01T07:25:30.513Z,102273.53
2023-03-01T07:27:59.047Z,102267.19
2023-03-01T07:30:29.346Z,102267.19
2023-03-01T07:32:59.284Z,102270.69
2023-03-01T07:35:28.321Z,102263.59
2023-03-01T07:37:56.903Z,102268.94
2023-03-01T07:40:25.018Z,102267.19
2023-03-01T07:42:57.292Z,102265.50
2023-03-01T07:45:26.383Z,102267.19
2023-03-01T07:47:55.021Z,102260.81
2023-03-01T07:50:24.654Z,102255.47
2023-03-01T07:52:52.770Z,102259.78
2023-03-01T07:55:21.585Z,102263.41
2023-03-01T07:57:49.984Z,102252.69
2023-03-01T08:00:18.557Z,102263.09
2023-03-01T08:02:47.146Z,102267.66
2023-03-01T08:05:15.474Z,102255.81
2023-03-01T08:07:45.155Z,102261.00
2023-03-01T08:10:13.669Z,102262.72
2023-03-01T08:12:42.075Z,102262.56
2023-03-01T08:15:10.995Z,102264.97
2023-03-01T08:17:39.135Z,102262.91
2023-03-01T08:20:08.246Z,102272.59
2023-03-01T08:22:36.500Z,102269.09
2023-03-01T08:25:06.843Z,102274.28
2023-03-01T08:27:35.379Z,102282.19
2023-03-01T08:30:03.588Z,102289.34
2023-03-01T08:32:32.011Z,102285.72
2023-03-01T08:35:00.395Z,102292.81
2023-03-01T08:37:31.805Z,102290.13
2023-03-01T08:39:59.954Z,102298.16
2023-03-01T08:42:29.743Z,102298.94
2023-03-01T08:44:57.862Z,102294.97
2023-03-01T08:47:25.993Z,102296.69
2023-03-01T08:49:54.605Z,102309.66
2023-03-01T08:52:22.679Z,102314.75
2023-03-01T08:54:51.423Z,102305.41
2023-03-01T08:57:19.967Z,102309.81
2023-03-01T08:59:49.706Z,102305.56
2023-03-01T09:02:19.082Z,102305.94
2023-03-01T09:04:47.523Z,102304.91
2023-03-01T09:07:16.028Z,102301.34
2023-03-01T09:09:44.221Z,102306.00
2023-03-01T09:12:12.373Z,102305.31
2023-03-01T09:14:42.645Z,102292.91
2023-03-01T09:17:12.268Z,102299.53
2023-03-01T09:19:40.588Z,102296.19
2023-03-01T09:22:08.670Z,102290.81
2023-03-01T09:24:37.084Z,102297.03
2023-03-01T09:27:09.913Z,102293.09
2023-03-01T09:29:38.426Z,102295.50
2023-03-01T09:32:06.835Z,102304.00
2023-03-01T09:34:56.518Z,102304.75
2023-03-01T09:37:24.879Z,102298.25
2023-03-01T09:39:53.257Z,102302.25
2023-03-01T09:42:21.605Z,102300.72
2023-03-01T09:44:52.619Z,102293.59
2023-03-01T09:47:21.942Z,102308.19
2023-03-01T09:49:57.782Z,102298.66
2023-03-01T09:52:29.052Z,102302.81
2023-03-01T09:55:00.758Z,102298.81
2023-03-01T09:57:32.121Z,102298.22
2023-03-01T10:00:11.728Z,102285.13
2023-03-01T10:02:41.711Z,102291.88
2023-03-01T10:05:20.625Z,102284.56
2023-03-01T10:07:56.411Z,102287.53
2023-03-01T10:10:30.117Z,102286.78
2023-03-01T10:12:59.739Z,102282.88
2023-03-01T10:15:38.214Z,102294.25
2023-03-01T10:18:09.198Z,102283.34
2023-03-01T10:20:45.990Z,102283.84
2023-03-01T10:23:14.767Z,102291.88
2023-03-01T10:25:49.567Z,102284.84
2023-03-01T10:28:20.096Z,102279.59
2023-03-01T10:30:49.720Z,102285.66
2023-03-01T10:33:19.830Z,102285.47
2023-03-01T10:35:49.712Z,102290.44
2023-03-01T10:38:20.042Z,102284.91
2023-03-01T10:40:56.354Z,102281.06
2023-03-01T10:43:25.437Z,102283.00
2023-03-01T10:45:53.897Z,102276.94
2023-03-01T10:48:25.551Z,102275.78
2023-03-01T10:51:07.047Z,102278.22
2023-03-01T10:53:36.012Z,102277.88
2023-03-01T10:56:05.944Z,102282.25
2023-03-01T10:58:34.616Z,102276.88
2023-03-01T11:01:03.886Z,102284.50
2023-03-01T11:03:33.293Z,102284.13
2023-03-01T11:06:04.772Z,102288.09
2023-03-01T11:08:40.832Z,102284.09
2023-03-01T11:11:15.944Z,102274.78
2023-03-01T11:13:51.853Z,102285.81
2023-03-01T11:16:26.211Z,102276.09
2023-03-01T11:19:02.442Z,102278.25
2023-03-01T11:21:33.384Z,102282.56
2023-03-01T11:24:03.504Z,102270.88
2023-03-01T11:26:33.479Z,102261.00
2023-03-01T11:29:04.789Z,102255.94
2023-03-01T11:31:34.423Z,102256.44
2023-03-01T11:34:08.294Z,102241.47
2023-03-01T11:36:44.020Z,102237.81
2023-03-01T11:39:19.994Z,102241.66
2023-03-01T11:41:52.802Z,102238.66
2023-03-01T11:44:26.134Z,102238.28
2023-03-01T11:47:08.044Z,102235.53
2023-03-01T11:49:51.470Z,102230.22
2023-03-01T11:52:27.777Z,102230.53
2023-03-01T11:55:03.910Z,102221.22
2023-03-01T11:57:43.744Z,102225.13
2023-03-01T12:00:23.997Z,102214.78
2023-03-01T12:03:07.916Z,102213.25
2023-03-01T12:06:04.991Z,102204.47
2023-03-01T12:08:38.695Z,102199.94
2023-03-01T12:11:13.389Z,102195.22
2023-03-01T12:13:53.933Z,102178.84
2023-03-01T12:16:38.337Z,102193.50
2023-03-01T12:19:23.466Z,102176.91
2023-03-01T12:22:01.666Z,102163.56
2023-03-01T12:24:42.178Z,102169.84
2023-03-01T12:27:20.737Z,102162.38
2023-03-01T12:29:54.866Z,102145.03
2023-03-01T12:32:42.553Z,102133.59
2023-03-01T12:35:29.063Z,102124.66
2023-03-01T12:38:00.500Z,102114.47
2023-03-01T12:40:40.043Z,102105.63
2023-03-01T12:43:13.235Z,102098.19
2023-03-01T12:45:53.373Z,102096.91
2023-03-01T12:48:26.818Z,102084.44
2023-03-01T12:50:56.430Z,102094.88
2023-03-01T12:53:25.586Z,102094.78
2023-03-01T12:55:57.066Z,102093.06
2023-03-01T12:58:34.161Z,102083.56
2023-03-01T13:01:16.402Z,102087.19
2023-03-01T13:04:02.305Z,102064.81
2023-03-01T13:06:43.378Z,102065.03
2023-03-01T13:09:17.579Z,102059.38
2023-03-01T13:11:47.266Z,102049.78
2023-03-01T13:14:33.949Z,102044.19
2023-03-01T13:17:02.252Z,102035.16
2023-03-01T13:19:33.389Z,102030.38
2023-03-01T13:22:01.631Z,102037.94
2023-03-01T13:24:30.290Z,102025.97
2023-03-01T13:27:17.206Z,102020.25
2023-03-01T13:29:48.548Z,102016.13
2023-03-01T13:32:31.656Z,102012.25
2023-03-01T13:35:26.438Z,102017.28
2023-03-01T13:37:54.678Z,102022.78
2023-03-01T13:40:41.686Z,102011.59
2023-03-01T13:43:29.711Z,102010.75
2023-03-01T13:45:59.708Z,102007.53
2023-03-01T13:48:29.810Z,101998.94
2023-03-01T13:51:00.239Z,101998.38
2023-03-01T13:53:31.960Z,101997.00
2023-03-01T13:56:03.269Z,101982.28
2023-03-01T13:58:32.314Z,101986.81
2023-03-01T14:01:02.863Z,101981.44
2023-03-01T14:03:32.917Z,101974.75
2023-03-01T14:06:13.057Z,101981.88
2023-03-01T14:08:42.686Z,101974.56
2023-03-01T14:11:31.732Z,101967.44
2023-03-01T14:14:06.983Z,101965.53
2023-03-01T14:16:44.830Z,101972.47
2023-03-01T14:19:31.074Z,101975.41
2023-03-01T14:22:04.111Z,101971.47
2023-03-01T14:24:33.994Z,101963.38
2023-03-01T14:27:03.076Z,101973.00
2023-03-01T14:29:36.400Z,101966.59
2023-03-01T14:32:13.757Z,101962.25
2023-03-01T14:34:45.128Z,101961.16
2023-03-01T14:37:14.063Z,101963.63
2023-03-01T14:39:42.165Z,101962.91
2023-03-01T14:42:15.526Z,101961.44
2023-03-01T14:44:45.618Z,101961.03
2023-03-01T14:47:17.306Z,101960.63
2023-03-01T14:49:45.918Z,101944.56
2023-03-01T14:52:21.466Z,101943.38
2023-03-01T14:54:50.687Z,101945.78
2023-03-01T14:57:19.934Z,101932.66
2023-03-01T14:59:49.386Z,101938.59
2023-03-01T15:02:20.821Z,101936.91
2023-03-01T15:04:51.098Z,101937.09
2023-03-01T15:07:20.586Z,101940.53
2023-03-01T15:09:48.980Z,101921.69
2023-03-01T15:12:27.508Z,101919.69
2023-03-01T15:15:03.807Z,101918.63
2023-03-01T15:17:35.572Z,101922.09
2023-03-01T15:20:05.284Z,101919.16
2023-03-01T15:22:34.221Z,101920.59
2023-03-01T15:25:06.166Z,101908.16
2023-03-01T15:27:38.014Z,101904.50
2023-03-01T15:30:06.743Z,101901.44
2023-03-01T15:32:40.317Z,101891.34
2023-03-01T15:35:23.634Z,101881.38
2023-03-01T15:37:52.309Z,101881.41
2023-03-01T15:40:22.221Z,101878.13
2023-03-01T15:42:50.337Z,101868.97
2023-03-01T15:45:28.216Z,101866.78
2023-03-01T15:47:59.496Z,101863.81
2023-03-01T15:50:29.071Z,101862.22
2023-03-01T15:52:58.167Z,101860.25
2023-03-01T15:55:30.552Z,101863.00
2023-03-01T15:58:03.282Z,101865.50
2023-03-01T16:00:31.882Z,101863.00
2023-03-01T16:03:01.574Z,101866.81
2023-03-01T16:05:31.634Z,101864.34
2023-03-01T16:08:00.459Z,101869.41
2023-03-01T16:10:29.212Z,101869.75
2023-03-01T16:12:57.399Z,101855.78
2023-03-01T16:15:26.764Z,101858.69
2023-03-01T16:17:55.495Z,101849.78
2023-03-01T16:20:28.852Z,101846.09
2023-03-01T16:23:01.275Z,101846.09
2023-03-01T16:25:30.042Z,101859.03
2023-03-01T16:27:59.677Z,101853.19
2023-03-01T16:30:28.384Z,101856.84
2023-03-01T16:32:57.031Z,101849.78
2023-03-01T16:35:27.142Z,101857.28
2023-03-01T16:37:55.950Z,101852.13
2023-03-01T16:40:25.725Z,101844.41
2023-03-01T16:42:54.054Z,101838.06
2023-03-01T16:45:24.926Z,101841.09
2023-03-01T16:47:55.823Z,101840.56
2023-03-01T16:50:24.660Z,101839.19
2023-03-01T16:52:54.168Z,101835.84
2023-03-01T16:55:22.862Z,101840.16
2023-03-01T16:57:52.138Z,101836.72
2023-03-01T17:00:20.518Z,101839.50
2023-03-01T17:02:49.158Z,101831.56
2023-03-01T17:05:18.464Z,101828.88
2023-03-01T17:07:46.571Z,101827.19
2023-03-01T17:10:16.251Z,101818.13
2023-03-01T17:12:44.951Z,101818.00
2023-03-01T17:15:14.325Z,101822.53
2023-03-01T17:17:42.426Z,101814.16
2023-03-01T17:20:11.094Z,101810.41
2023-03-01T17:22:40.356Z,101808.28
2023-03-01T17:25:11.121Z,101814.59
2023-03-01T17:27:43.256Z,101814.13
2023-03-01T17:30:13.960Z,101813.91
2023-03-01T17:32:42.784Z,101819.63
2023-03-01T17:35:13.801Z,101826.81
2023-03-01T17:37:46.803Z,101821.00
2023-03-01T17:40:16.042Z,101824.66
2023-03-01T17:42:45.929Z,101825.53
2023-03-01T17:45:14.297Z,101821.13
2023-03-01T17:47:42.561Z,101822.28
2023-03-01T17:50:12.404Z,101831.28
2023-03-01T17:52:41.360Z,101829.59
2023-03-01T17:55:10.405Z,101826.16
2023-03-01T17:57:40.615Z,101826.56
2023-03-01T18:00:11.929Z,101835.59
2023-03-01T18:02:40.108Z,101831.38
2023-03-01T18:05:09.062Z,101828.69
2023-03-01T18:07:37.280Z,101834.84
2023-03-01T18:10:05.823Z,101833.22
2023-03-01T18:12:34.245Z,101843.09
2023-03-01T18:15:02.867Z,101839.66
2023-03-01T18:17:32.474Z,101843.97
2023-03-01T18:20:00.661Z,101841.38
2023-03-01T18:22:28.776Z,101842.53
2023-03-01T18:24:59.902Z,101844.50
2023-03-01T18:27:28.560Z,101845.22
2023-03-01T18:29:57.256Z,101852.31
2023-03-01T18:32:25.877Z,101852.31
2023-03-01T18:34:55.586Z,101859.72
2023-03-01T18:37:24.058Z,101851.03
2023-03-01T18:39:53.052Z,101850.78
2023-03-01T18:42:22.193Z,101854.50
2023-03-01T18:44:50.471Z,101846.25
2023-03-01T18:47:18.796Z,101843.88
2023-03-01T18:49:46.870Z,101844.75
2023-03-01T18:52:16.962Z,101847.00
2023-03-01T18:54:45.166Z,101846.88
2023-03-01T18:57:13.594Z,101844.59
2023-03-01T18:59:42.180Z,101843.84
2023-03-01T19:02:12.383Z,101843.00
2023-03-01T19:04:40.767Z,101844.06
2023-03-01T19:07:09.118Z,101841.16
2023-03-01T19:09:38.874Z,101845.78
2023-03-01T19:12:07.174Z,101850.94
2023-03-01T19:14:35.455Z,101845.38
2023-03-01T19:17:03.778Z,101842.00
2023-03-01T19:19:31.965Z,101841.06
2023-03-01T19:22:05.630Z,101840.00
2023-03-01T19:24:35.622Z,101838.28
2023-03-01T19:27:05.468Z,101819.28
2023-03-01T19:29:36.191Z,101831.75
2023-03-01T19:32:05.330Z,101830.13
2023-03-01T19:34:36.406Z,101829.28
2023-03-01T19:37:05.058Z,101832.38
2023-03-01T19:39:33.311Z,101842.53
2023-03-01T19:42:01.582Z,101840.59
2023-03-01T19:44:31.049Z,101838.13
2023-03-01T19:46:59.371Z,101849.16
2023-03-01T19:49:29.965Z,101833.91
2023-03-01T19:51:58.388Z,101836.72
2023-03-01T19:54:27.354Z,101837.00
2023-03-01T19:56:55.968Z,101827.03
2023-03-01T19:59:27.734Z,101827.25
2023-03-01T20:01:58.484Z,101834.34
2023-03-01T20:04:26.731Z,101834.34
2023-03-01T20:06:55.036Z,101840.66
2023-03-01T20:09:23.268Z,101830.97
2023-03-01T20:11:51.866Z,101833.59
2023-03-01T20:14:23.352Z,101829.19
2023-03-01T20:16:52.273Z,101809.84
2023-03-01T20:19:22.259Z,101804.47
2023-03-01T20:21:50.704Z,101804.47
2023-03-01T20:24:18.943Z,101801.50
2023-03-01T20:26:47.026Z,101806.09
2023-03-01T20:29:15.301Z,101806.63
2023-03-01T20:31:43.493Z,101803.84
2023-03-01T20:34:11.600Z,101799.31
2023-03-01T20:36:41.748Z,101801.06
2023-03-01T20:39:11.864Z,101793.97
2023-03-01T20:41:40.329Z,101797.50
2023-03-01T20:44:09.638Z,101802.78
2023-03-01T20:46:38.246Z,101800.09
2023-03-01T20:49:07.464Z,101795.69
2023-03-01T20:51:35.724Z,101804.47
2023-03-01T20:54:05.580Z,101801.59
2023-03-01T20:56:33.926Z,101799.13
2023-03-01T20:59:04.511Z,101795.28
2023-03-01T21:01:33.110Z,101798.91
2023-03-01T21:04:01.601Z,101805.38
2023-03-01T21:06:30.378Z,101807.72
2023-03-01T21:08:58.953Z,101802.38
2023-03-01T21:11:28.600Z,101798.28
2023-03-01T21:13:57.348Z,101802.38
2023-03-01T21:16:26.011Z,101801.59
2023-03-01T21:18:54.360Z,101799.13
2023-03-01T21:21:23.253Z,101791.84
2023-03-01T21:23:51.655Z,101790.13
2023-03-01T21:26:21.360Z,101788.41
2023-03-01T21:28:51.981Z,101785.19
2023-03-01T21:31:21.088Z,101783.03
2023-03-01T21:33:50.343Z,101782.81
2023-03-01T21:36:18.936Z,101784.56
2023-03-01T21:38:48.237Z,101793.56
2023-03-01T21:41:17.654Z,101788.00
2023-03-01T21:43:46.515Z,101779.97
2023-03-01T21:46:17.266Z,101779.97
2023-03-01T21:48:45.945Z,101779.19
2023-03-01T21:51:15.194Z,101776.50
2023-03-01T21:53:43.872Z,101766.94
2023-03-01T21:56:16.130Z,101765.25
2023-03-01T21:58:44.391Z,101768.88
2023-03-01T22:01:14.369Z,101770.63
2023-03-01T22:03:46.453Z,101771.66
2023-03-01T22:06:19.193Z,101765.03
2023-03-01T22:08:48.079Z,101762.66
2023-03-01T22:11:18.034Z,101757.09
2023-03-01T22:13:47.654Z,101755.47
2023-03-01T22:16:16.091Z,101763.72
2023-03-01T22:18:45.636Z,101763.91
2023-03-01T22:21:14.045Z,101763.72
2023-03-01T22:23:42.580Z,101767.78
2023-03-01T22:26:21.172Z,101763.06
2023-03-01T22:28:49.372Z,101756.19
2023-03-01T22:31:17.755Z,101753.59
2023-03-01T22:33:47.544Z,101753.59
2023-03-01T22:36:15.869Z,101751.69
2023-03-01T22:38:43.942Z,101750.19
2023-03-01T22:41:12.064Z,101749.97
2023-03-01T22:43:40.331Z,101747.59
2023-03-01T22:46:12.893Z,101745.78
2023-03-01T22:48:41.451Z,101747.59
2023-03-01T22:51:14.615Z,101750.19
2023-03-01T22:53:42.768Z,101749.41
2023-03-01T22:56:12.037Z,101748.56
2023-03-01T22:58:40.121Z,101744.03
2023-03-01T23:01:12.431Z,101746.94
2023-03-01T23:03:40.611Z,101740.81
2023-03-01T23:06:10.424Z,101740.16
2023-03-01T23:08:38.979Z,101736.84
2023-03-01T23:11:11.884Z,101734.69
2023-03-01T23:13:40.284Z,101738.72
2023-03-01T23:16:09.046Z,101744.88
2023-03-01T23:18:37.520Z,101736.06
2023-03-01T23:21:10.743Z,101739.63
2023-03-01T23:23:38.967Z,101736.25
2023-03-01T23:26:07.375Z,101735.31
2023-03-01T23:28:36.915Z,101737.22
2023-03-01T23:31:05.930Z,101726.50
2023-03-01T23:33:38.418Z,101724.22
2023-03-01T23:36:07.580Z,101719.63
2023-03-01T23:38:37.176Z,101722.50
2023-03-01T23:41:05.457Z,101715.44
2023-03-01T23:43:34.088Z,101712.94
2023-03-01T23:46:02.199Z,101716.50
2023-03-01T23:48:30.421Z,101721.97
2023-03-01T23:50:58.578Z,101720.22
2023-03-01T23:53:26.833Z,101733.72
2023-03-01T23:55:56.551Z,101725.59
2023-03-01T23:58:28.553Z,101730.75
